sensor_id;sensor_type;location;lat;lon;timestamp;pressure;altitude;pressure_sealevel;temperature;humidity
70304;BME280;57712;48.752;11.348;2023-02-28T00:01:28;98166.34;;;-1.70;100.00
70304;BME280;57712;48.752;11.348;2023-02-28T00:03:55;98174.06;;;-1.68;100.00
70304;BME280;57712;48.752;11.348;2023-02-28T00:06:22;98171.88;;;-1.66;100.00
70304;BME280;57712;48.752;11.348;2023-02-28T00:08:50;98169.47;;;-1.68;100.00
70304;BME280;57712;48.752;11.348;2023-02-28T00:11:17;98165.84;;;-1.63;100.00
70304;BME280;57712;48.752;11.348;2023-02-28T00:13:46;98164.28;;;-1.64;100.00
70304;BME280;57712;48.752;11.348;2023-02-28T00:16:19;98159.69;;;-1.64;100.00
70304;BME280;57712;48.752;11.348;2023-02-28T00:18:46;98158.91;;;-1.64;100.00
70304;BME280;57712;48.752;11.348;2023-02-28T00:21:15;98157.94;;;-1.68;100.00
70304;BME280;57712;48.752;11.348;2023-02-28T00:23:42;98159.09;;;-1.78;100.00
70304;BME280;57712;48.752;11.348;2023-02-28T00:26:09;98147.56;;;-1.79;100.00
70304;BME280;57712;48.752;11.348;2023-02-28T00:28:36;98145.50;;;-1.73;100.00
70304;BME280;57712;48.752;11.348;2023-02-28T00:31:03;98140.63;;;-1.80;100.00
70304;BME280;57712;48.752;11.348;2023-02-28T00:33:30;98138.28;;;-1.90;100.00
70304;BME280;57712;48.752;11.348;2023-02-28T00:36:08;98141.72;;;-1.81;100.00
70304;BME280;57712;48.752;11.348;2023-02-28T00:38:35;98150.78;;;-1.94;100.00
70304;BME280;57712;48.752;11.348;2023-02-28T00:41:02;98139.84;;;-1.89;100.00
70304;BME280;57712;48.752;11.348;2023-02-28T00:43:34;98147.00;;;-1.93;100.00
70304;BME280;57712;48.752;11.348;2023-02-28T00:46:02;98141.63;;;-1.93;100.00
70304;BME280;57712;48.752;11.348;2023-02-28T00:48:29;98146.66;;;-1.91;100.00
70304;BME280;57712;48.752;11.348;2023-02-28T00:50:56;98142.53;;;-1.89;100.00
70304;BME280;57712;48.752;11.348;2023-02-28T00:53:22;98150.94;;;-1.99;100.00
70304;BME280;57712;48.752;11.348;2023-02-28T00:55:50;98144.75;;;-1.91;100.00
70304;BME280;57712;48.752;11.348;2023-02-28T00:58:17;98144.63;;;-1.94;100.00
70304;BME280;57712;48.752;11.348;2023-02-28T01:00:44;98150.66;;;-1.97;100.00
70304;BME280;57712;48.752;11.348;2023-02-28T01:03:16;98140.69;;;-1.97;100.00
70304;BME280;57712;48.752;11.348;2023-02-28T01:05:44;98135.50;;;-2.02;100.00
70304;BME280;57712;48.752;11.348;2023-02-28T01:08:12;98135.03;;;-2.04;100.00
70304;BME280;57712;48.752;11.348;2023-02-28T01:10:40;98126.78;;;-1.99;100.00
70304;BME280;57712;48.752;11.348;2023-02-28T01:13:09;98133.44;;;-2.05;100.00
70304;BME280;57712;48.752;11.348;2023-02-28T01:15:36;98125.06;;;-2.04;100.00
70304;BME280;57712;48.752;11.348;2023-02-28T01:18:04;98129.66;;;-2.04;100.00
70304;BME280;57712;48.752;11.348;2023-02-28T01:20:31;98132.50;;;-2.09;100.00
70304;BME280;57712;48.752;11.348;2023-02-28T01:22:59;98124.28;;;-2.04;100.00
70304;BME280;57712;48.752;11.348;2023-02-28T01:25:25;98118.78;;;-2.08;100.00
70304;BME280;57712;48.752;11.348;2023-02-28T01:27:52;98133.00;;;-2.07;100.00
70304;BME280;57712;48.752;11.348;2023-02-28T01:30:18;98131.22;;;-2.03;100.00
70304;BME280;57712;48.752;11.348;2023-02-28T01:32:45;98132.50;;;-2.09;100.00
70304;BME280;57712;48.752;11.348;2023-02-28T01:35:13;98127.78;;;-2.12;100.00
70304;BME280;57712;48.752;11.348;2023-02-28T01:37:39;98125.09;;;-2.12;100.00
70304;BME280;57712;48.752;11.348;2023-02-28T01:40:06;98123.97;;;-2.11;100.00
70304;BME280;57712;48.752;11.348;2023-02-28T01:42:33;98124.63;;;-2.14;100.00
70304;BME280;57712;48.752;11.348;2023-02-28T01:45:19;98124.78;;;-2.19;100.00
70304;BME280;57712;48.752;11.348;2023-02-28T01:47:48;98129.84;;;-2.18;100.00
70304;BME280;57712;48.752;11.348;2023-02-28T01:50:20;98128.28;;;-2.19;100.00
70304;BME280;57712;48.752;11.348;2023-02-28T01:52:49;98126.69;;;-2.20;100.00
70304;BME280;57712;48.752;11.348;2023-02-28T01:55:18;98125.91;;;-2.20;100.00
70304;BME280;57712;48.752;11.348;2023-02-28T01:57:51;98125.91;;;-2.20;100.00
70304;BME280;57712;48.752;11.348;2023-02-28T02:00:20;98121.50;;;-2.16;100.00
70304;BME280;57712;48.752;11.348;2023-02-28T02:02:51;98120.53;;;-2.20;100.00
70304;BME280;57712;48.752;11.348;2023-02-28T02:05:23;98121.19;;;-2.23;100.00
70304;BME280;57712;48.752;11.348;2023-02-28T02:07:56;98116.47;;;-2.26;100.00
70304;BME280;57712;48.752;11.348;2023-02-28T02:15:57;98114.69;;;-2.22;100.00
70304;BME280;57712;48.752;11.348;2023-02-28T02:18:42;98118.34;;;-2.27;100.00
70304;BME280;57712;48.752;11.348;2023-02-28T02:24:19;98113.59;;;-2.21;100.00
70304;BME280;57712;48.752;11.348;2023-02-28T02:29:47;98107.94;;;-2.28;100.00
70304;BME280;57712;48.752;11.348;2023-02-28T02:35:11;98108.56;;;-2.32;100.00
70304;BME280;57712;48.752;11.348;2023-02-28T02:37:50;98113.31;;;-2.28;100.00
70304;BME280;57712;48.752;11.348;2023-02-28T02:40:22;98111.09;;;-2.26;100.00
70304;BME280;57712;48.752;11.348;2023-02-28T02:42:51;98115.03;;;-2.33;100.00
70304;BME280;57712;48.752;11.348;2023-02-28T02:45:24;98110.66;;;-2.37;100.00
70304;BME280;57712;48.752;11.348;2023-02-28T02:47:56;98114.56;;;-2.35;100.00
70304;BME280;57712;48.752;11.348;2023-02-28T02:50:30;98110.31;;;-2.36;100.00
70304;BME280;57712;48.752;11.348;2023-02-28T02:53:02;98111.44;;;-2.37;100.00
70304;BME280;57712;48.752;11.348;2023-02-28T02:55:31;98110.44;;;-2.23;100.00
70304;BME280;57712;48.752;11.348;2023-02-28T02:58:03;98111.22;;;-2.23;100.00
70304;BME280;57712;48.752;11.348;2023-02-28T03:00:37;98109.84;;;-2.38;100.00
70304;BME280;57712;48.752;11.348;2023-02-28T03:03:07;98110.31;;;-2.36;100.00
70304;BME280;57712;48.752;11.348;2023-02-28T03:05:41;98110.19;;;-2.39;100.00
70304;BME280;57712;48.752;11.348;2023-02-28T03:08:09;98113.94;;;-2.32;100.00
70304;BME280;57712;48.752;11.348;2023-02-28T03:10:41;98118.22;;;-2.39;100.00
70304;BME280;57712;48.752;11.348;2023-02-28T03:16:12;98110.47;;;-2.41;100.00
70304;BME280;57712;48.752;11.348;2023-02-28T03:21:28;98108.75;;;-2.45;100.00
70304;BME280;57712;48.752;11.348;2023-02-28T03:24:06;98109.69;;;-2.41;100.00
70304;BME280;57712;48.752;11.348;2023-02-28T03:26:39;98107.31;;;-2.43;100.00
70304;BME280;57712;48.752;11.348;2023-02-28T03:31:52;98107.97;;;-2.46;100.00
70304;BME280;57712;48.752;11.348;2023-02-28T03:34:38;98104.50;;;-2.55;100.00
70304;BME280;57712;48.752;11.348;2023-02-28T03:37:14;98102.75;;;-2.51;100.00
70304;BME280;57712;48.752;11.348;2023-02-28T03:39:56;98101.19;;;-2.52;100.00
70304;BME280;57712;48.752;11.348;2023-02-28T03:42:27;98101.50;;;-2.53;100.00
70304;BME280;57712;48.752;11.348;2023-02-28T03:45:16;98106.09;;;-2.54;100.00
70304;BME280;57712;48.752;11.348;2023-02-28T03:47:52;98103.88;;;-2.52;100.00
70304;BME280;57712;48.752;11.348;2023-02-28T03:50:22;98104.03;;;-2.57;100.00
70304;BME280;57712;48.752;11.348;2023-02-28T03:52:58;98111.44;;;-2.54;100.00
70304;BME280;57712;48.752;11.348;2023-02-28T03:55:31;98112.72;;;-2.60;100.00
70304;BME280;57712;48.752;11.348;2023-02-28T03:58:08;98111.13;;;-2.61;100.00
70304;BME280;57712;48.752;11.348;2023-02-28T04:00:44;98118.09;;;-2.60;100.00
70304;BME280;57712;48.752;11.348;2023-02-28T04:03:13;98110.34;;;-2.62;100.00
70304;BME280;57712;48.752;11.348;2023-02-28T04:05:52;98110.06;;;-2.60;100.00
70304;BME280;57712;48.752;11.348;2023-02-28T04:08:19;98113.34;;;-2.63;100.00
70304;BME280;57712;48.752;11.348;2023-02-28T04:10:52;98114.91;;;-2.62;100.00
70304;BME280;57712;48.752;11.348;2023-02-28T04:13:20;98118.09;;;-2.60;100.00
70304;BME280;57712;48.752;11.348;2023-02-28T04:15:47;98114.47;;;-2.64;100.00
70304;BME280;57712;48.752;11.348;2023-02-28T04:18:13;98126.28;;;-2.65;100.00
70304;BME280;57712;48.752;11.348;2023-02-28T04:20:40;98121.72;;;-2.65;100.00
70304;BME280;57712;48.752;11.348;2023-02-28T04:23:06;98129.44;;;-2.63;100.00
70304;BME280;57712;48.752;11.348;2023-02-28T04:25:33;98134.97;;;-2.59;100.00
70304;BME280;57712;48.752;11.348;2023-02-28T04:28:00;98136.53;;;-2.67;100.00
70304;BME280;57712;48.752;11.348;2023-02-28T04:30:27;98131.34;;;-2.64;100.00
70304;BME280;57712;48.752;11.348;2023-02-28T04:32:55;98128.19;;;-2.66;100.00
70304;BME280;57712;48.752;11.348;2023-02-28T04:35:22;98126.28;;;-2.65;100.00
70304;BME280;57712;48.752;11.348;2023-02-28T04:37:49;98126.94;;;-2.68;100.00
70304;BME280;57712;48.752;11.348;2023-02-28T04:40:15;98126.47;;;-2.70;100.00
70304;BME280;57712;48.752;11.348;2023-02-28T04:42:42;98125.34;;;-2.69;100.00
70304;BME280;57712;48.752;11.348;2023-02-28T04:45:09;98119.66;;;-2.68;100.00
70304;BME280;57712;48.752;11.348;2023-02-28T04:47:36;98122.69;;;-2.69;100.00
70304;BME280;57712;48.752;11.348;2023-02-28T04:50:03;98119.34;;;-2.66;100.00
70304;BME280;57712;48.752;11.348;2023-02-28T04:52:30;98126.94;;;-2.68;100.00
70304;BME280;57712;48.752;11.348;2023-02-28T04:54:56;98129.75;;;-2.73;100.00
70304;BME280;57712;48.752;11.348;2023-02-28T04:57:22;98130.53;;;-2.73;100.00
70304;BME280;57712;48.752;11.348;2023-02-28T04:59:49;98129.16;;;-2.70;100.00
70304;BME280;57712;48.752;11.348;2023-02-28T05:02:15;98136.88;;;-2.69;100.00
70304;BME280;57712;48.752;11.348;2023-02-28T05:04:42;98134.66;;;-2.75;100.00
70304;BME280;57712;48.752;11.348;2023-02-28T05:07:09;98134.66;;;-2.75;100.00
70304;BME280;57712;48.752;11.348;2023-02-28T05:09:36;98147.13;;;-2.79;100.00
70304;BME280;57712;48.752;11.348;2023-02-28T05:12:02;98152.94;;;-2.77;100.00
70304;BME280;57712;48.752;11.348;2023-02-28T05:14:29;98146.00;;;-2.78;100.00
70304;BME280;57712;48.752;11.348;2023-02-28T05:16:56;98152.47;;;-2.79;100.00
70304;BME280;57712;48.752;11.348;2023-02-28T05:19:23;98147.41;;;-2.72;100.00
70304;BME280;57712;48.752;11.348;2023-02-28T05:21:54;98150.25;;;-2.77;100.00
70304;BME280;57712;48.752;11.348;2023-02-28T05:24:21;98157.34;;;-2.73;100.00
70304;BME280;57712;48.752;11.348;2023-02-28T05:26:52;98153.09;;;-2.82;100.00
70304;BME280;57712;48.752;11.348;2023-02-28T05:29:19;98153.28;;;-2.79;100.00
70304;BME280;57712;48.752;11.348;2023-02-28T05:31:46;98149.63;;;-2.74;100.00
70304;BME280;57712;48.752;11.348;2023-02-28T05:34:12;98152.31;;;-2.74;100.00
70304;BME280;57712;48.752;11.348;2023-02-28T05:36:42;98149.63;;;-2.83;100.00
70304;BME280;57712;48.752;11.348;2023-02-28T05:39:09;98145.22;;;-2.87;100.00
70304;BME280;57712;48.752;11.348;2023-02-28T05:41:41;98146.78;;;-2.86;100.00
70304;BME280;57712;48.752;11.348;2023-02-28T05:44:10;98155.94;;;-2.87;100.00
70304;BME280;57712;48.752;11.348;2023-02-28T05:46:40;98158.75;;;-2.93;100.00
70304;BME280;57712;48.752;11.348;2023-02-28T05:49:07;98158.75;;;-2.93;100.00
70304;BME280;57712;48.752;11.348;2023-02-28T05:51:33;98156.41;;;-2.94;100.00
70304;BME280;57712;48.752;11.348;2023-02-28T05:54:06;98163.81;;;-3.00;100.00
70304;BME280;57712;48.752;11.348;2023-02-28T05:56:33;98161.91;;;-2.99;100.00
70304;BME280;57712;48.752;11.348;2023-02-28T05:59:06;98162.25;;;-3.01;100.00
70304;BME280;57712;48.752;11.348;2023-02-28T06:01:41;98160.31;;;-3.09;100.00
70304;BME280;57712;48.752;11.348;2023-02-28T06:04:09;98167.41;;;-3.04;100.00
70304;BME280;57712;48.752;11.348;2023-02-28T06:06:54;98160.66;;;-3.02;100.00
70304;BME280;57712;48.752;11.348;2023-02-28T06:09:23;98161.75;;;-3.11;100.00
70304;BME280;57712;48.752;11.348;2023-02-28T06:11:51;98164.41;;;-3.03;100.00
70304;BME280;57712;48.752;11.348;2023-02-28T06:14:19;98165.38;;;-2.99;100.00
70304;BME280;57712;48.752;11.348;2023-02-28T06:16:46;98172.16;;;-3.01;100.00
70304;BME280;57712;48.752;11.348;2023-02-28T06:19:12;98165.84;;;-2.97;100.00
70304;BME280;57712;48.752;11.348;2023-02-28T06:21:39;98171.22;;;-2.97;100.00
70304;BME280;57712;48.752;11.348;2023-02-28T06:24:06;98171.09;;;-2.92;100.00
70304;BME280;57712;48.752;11.348;2023-02-28T06:26:40;98169.81;;;-2.85;100.00
70304;BME280;57712;48.752;11.348;2023-02-28T06:29:07;98167.00;;;-2.80;100.00
70304;BME280;57712;48.752;11.348;2023-02-28T06:31:33;98169.34;;;-2.79;100.00
70304;BME280;57712;48.752;11.348;2023-02-28T06:34:00;98169.03;;;-2.77;100.00
70304;BME280;57712;48.752;11.348;2023-02-28T06:36:27;98167.94;;;-2.68;100.00
70304;BME280;57712;48.752;11.348;2023-02-28T06:38:54;98165.06;;;-2.71;100.00
70304;BME280;57712;48.752;11.348;2023-02-28T06:41:25;98169.97;;;-2.65;100.00
70304;BME280;57712;48.752;11.348;2023-02-28T06:43:54;98170.31;;;-2.57;100.00
70304;BME280;57712;48.752;11.348;2023-02-28T06:46:21;98179.44;;;-2.50;100.00
70304;BME280;57712;48.752;11.348;2023-02-28T06:48:48;98180.53;;;-2.42;100.00
70304;BME280;57712;48.752;11.348;2023-02-28T06:51:18;98171.22;;;-2.36;100.00
70304;BME280;57712;48.752;11.348;2023-02-28T06:53:46;98180.53;;;-2.34;100.00
70304;BME280;57712;48.752;11.348;2023-02-28T06:56:14;98180.22;;;-2.23;100.00
70304;BME280;57712;48.752;11.348;2023-02-28T06:58:42;98175.63;;;-2.23;100.00
70304;BME280;57712;48.752;11.348;2023-02-28T07:01:13;98184.31;;;-2.17;100.00
70304;BME280;57712;48.752;11.348;2023-02-28T07:03:40;98181.75;;;-2.05;100.00
70304;BME280;57712;48.752;11.348;2023-02-28T07:06:07;98183.91;;;-1.90;100.00
70304;BME280;57712;48.752;11.348;2023-02-28T07:08:34;98184.88;;;-1.86;100.00
70304;BME280;57712;48.752;11.348;2023-02-28T07:11:01;98192.72;;;-1.72;100.00
70304;BME280;57712;48.752;11.348;2023-02-28T07:13:28;98190.53;;;-1.79;100.00
70304;BME280;57712;48.752;11.348;2023-02-28T07:16:07;98190.66;;;-1.66;100.00
70304;BME280;57712;48.752;11.348;2023-02-28T07:18:36;98188.44;;;-1.64;100.00
70304;BME280;57712;48.752;11.348;2023-02-28T07:21:04;98194.56;;;-1.55;100.00
70304;BME280;57712;48.752;11.348;2023-02-28T07:23:31;98194.56;;;-1.55;100.00
70304;BME280;57712;48.752;11.348;2023-02-28T07:25:58;98191.84;;;-1.47;100.00
70304;BME280;57712;48.752;11.348;2023-02-28T07:28:25;98200.91;;;-1.22;100.00
70304;BME280;57712;48.752;11.348;2023-02-28T07:30:52;98205.13;;;-1.12;100.00
70304;BME280;57712;48.752;11.348;2023-02-28T07:33:18;98201.44;;;-1.07;100.00
70304;BME280;57712;48.752;11.348;2023-02-28T07:35:45;98207.94;;;-0.79;100.00
70304;BME280;57712;48.752;11.348;2023-02-28T07:38:12;98205.00;;;-0.95;100.00
70304;BME280;57712;48.752;11.348;2023-02-28T07:40:40;98210.91;;;-0.72;100.00
70304;BME280;57712;48.752;11.348;2023-02-28T07:43:06;98216.28;;;-0.72;100.00
70304;BME280;57712;48.752;11.348;2023-02-28T07:45:33;98218.38;;;-0.56;100.00
70304;BME280;57712;48.752;11.348;2023-02-28T07:48:03;98216.97;;;-0.42;100.00
70304;BME280;57712;48.752;11.348;2023-02-28T07:50:30;98215.63;;;-0.27;100.00
70304;BME280;57712;48.752;11.348;2023-02-28T07:52:58;98214.94;;;-0.24;100.00
70304;BME280;57712;48.752;11.348;2023-02-28T07:55:25;98221.59;;;0.12;100.00
70304;BME280;57712;48.752;11.348;2023-02-28T07:57:51;98216.72;;;0.38;100.00
70304;BME280;57712;48.752;11.348;2023-02-28T08:00:18;98227.78;;;0.70;100.00
70304;BME280;57712;48.752;11.348;2023-02-28T08:02:45;98223.41;;;0.65;100.00
70304;BME280;57712;48.752;11.348;2023-02-28T08:05:12;98216.94;;;0.33;100.00
70304;BME280;57712;48.752;11.348;2023-02-28T08:07:38;98211.59;;;0.82;100.00
70304;BME280;57712;48.752;11.348;2023-02-28T08:10:05;98222.97;;;1.00;100.00
70304;BME280;57712;48.752;11.348;2023-02-28T08:12:32;98221.16;;;0.67;100.00
70304;BME280;57712;48.752;11.348;2023-02-28T08:14:59;98224.63;;;0.68;100.00
70304;BME280;57712;48.752;11.348;2023-02-28T08:17:25;98216.44;;;1.13;100.00
70304;BME280;57712;48.752;11.348;2023-02-28T08:19:52;98226.66;;;0.71;100.00
70304;BME280;57712;48.752;11.348;2023-02-28T08:22:19;98215.66;;;0.88;100.00
70304;BME280;57712;48.752;11.348;2023-02-28T08:24:45;98215.88;;;0.95;100.00
70304;BME280;57712;48.752;11.348;2023-02-28T08:27:12;98220.56;;;0.62;100.00
70304;BME280;57712;48.752;11.348;2023-02-28T08:29:39;98217.44;;;1.08;100.00
70304;BME280;57712;48.752;11.348;2023-02-28T08:32:07;98225.44;;;1.05;100.00
70304;BME280;57712;48.752;11.348;2023-02-28T08:34:42;98222.38;;;1.31;100.00
70304;BME280;57712;48.752;11.348;2023-02-28T08:37:11;98223.84;;;1.28;100.00
70304;BME280;57712;48.752;11.348;2023-02-28T08:39:38;98224.06;;;1.11;100.00
70304;BME280;57712;48.752;11.348;2023-02-28T08:42:04;98231.72;;;0.84;100.00
70304;BME280;57712;48.752;11.348;2023-02-28T08:44:33;98230.59;;;0.98;100.00
70304;BME280;57712;48.752;11.348;2023-02-28T08:47:00;98225.13;;;0.94;100.00
70304;BME280;57712;48.752;11.348;2023-02-28T08:49:26;98231.63;;;1.05;100.00
70304;BME280;57712;48.752;11.348;2023-02-28T08:51:53;98240.03;;;0.92;100.00
70304;BME280;57712;48.752;11.348;2023-02-28T08:54:20;98234.44;;;0.97;100.00
70304;BME280;57712;48.752;11.348;2023-02-28T08:56:48;98245.78;;;0.90;100.00
70304;BME280;57712;48.752;11.348;2023-02-28T08:59:14;98237.09;;;0.72;100.00
70304;BME280;57712;48.752;11.348;2023-02-28T09:01:41;98235.44;;;1.04;100.00
70304;BME280;57712;48.752;11.348;2023-02-28T09:04:09;98249.00;;;1.44;100.00
70304;BME280;57712;48.752;11.348;2023-02-28T09:06:42;98240.59;;;1.46;100.00
70304;BME280;57712;48.752;11.348;2023-02-28T09:09:10;98240.69;;;1.50;100.00
70304;BME280;57712;48.752;11.348;2023-02-28T09:11:37;98238.03;;;1.65;98.14
70304;BME280;57712;48.752;11.348;2023-02-28T09:14:03;98250.47;;;1.42;100.00
70304;BME280;57712;48.752;11.348;2023-02-28T09:16:31;98254.53;;;1.11;99.57
70304;BME280;57712;48.752;11.348;2023-02-28T09:18:59;98247.78;;;1.30;100.00
70304;BME280;57712;48.752;11.348;2023-02-28T09:21:26;98242.34;;;1.54;97.47
70304;BME280;57712;48.752;11.348;2023-02-28T09:23:54;98245.13;;;1.70;100.00
70304;BME280;57712;48.752;11.348;2023-02-28T09:26:23;98236.13;;;1.78;99.08
70304;BME280;57712;48.752;11.348;2023-02-28T09:28:51;98241.00;;;1.60;98.42
70304;BME280;57712;48.752;11.348;2023-02-28T09:31:21;98245.97;;;1.46;98.88
70304;BME280;57712;48.752;11.348;2023-02-28T09:33:53;98251.06;;;1.88;100.00
70304;BME280;57712;48.752;11.348;2023-02-28T09:36:20;98237.88;;;1.86;98.22
70304;BME280;57712;48.752;11.348;2023-02-28T09:38:48;98236.00;;;1.74;96.69
70304;BME280;57712;48.752;11.348;2023-02-28T09:41:21;98244.44;;;1.73;96.99
70304;BME280;57712;48.752;11.348;2023-02-28T09:43:56;98241.13;;;2.20;98.17
70304;BME280;57712;48.752;11.348;2023-02-28T09:46:40;98246.31;;;1.85;97.09
70304;BME280;57712;48.752;11.348;2023-02-28T09:49:13;98234.69;;;1.96;98.00
70304;BME280;57712;48.752;11.348;2023-02-28T09:51:59;98239.34;;;1.84;95.22
70304;BME280;57712;48.752;11.348;2023-02-28T09:54:30;98238.13;;;1.81;96.72
70304;BME280;57712;48.752;11.348;2023-02-28T09:57:01;98242.28;;;2.07;93.83
70304;BME280;57712;48.752;11.348;2023-02-28T10:05:11;98250.81;;;2.37;92.87
70304;BME280;57712;48.752;11.348;2023-02-28T10:08:00;98241.47;;;2.62;89.26
70304;BME280;57712;48.752;11.348;2023-02-28T10:10:38;98245.69;;;2.47;90.28
70304;BME280;57712;48.752;11.348;2023-02-28T10:13:34;98247.03;;;2.10;89.71
70304;BME280;57712;48.752;11.348;2023-02-28T10:16:13;98245.69;;;2.47;88.09
70304;BME280;57712;48.752;11.348;2023-02-28T10:18:56;98250.19;;;2.71;87.26
70304;BME280;57712;48.752;11.348;2023-02-28T10:21:34;98253.38;;;2.45;85.48
70304;BME280;57712;48.752;11.348;2023-02-28T10:26:43;98256.03;;;3.05;86.02
70304;BME280;57712;48.752;11.348;2023-02-28T10:29:11;98258.75;;;2.73;83.04
70304;BME280;57712;48.752;11.348;2023-02-28T10:31:38;98258.19;;;2.52;86.13
70304;BME280;57712;48.752;11.348;2023-02-28T10:34:05;98251.41;;;2.89;86.75
70304;BME280;57712;48.752;11.348;2023-02-28T10:36:32;98256.81;;;2.89;84.73
70304;BME280;57712;48.752;11.348;2023-02-28T10:39:01;98256.19;;;3.28;82.22
70304;BME280;57712;48.752;11.348;2023-02-28T10:41:45;98263.44;;;3.08;80.37
70304;BME280;57712;48.752;11.348;2023-02-28T10:44:20;98258.94;;;4.21;81.54
70304;BME280;57712;48.752;11.348;2023-02-28T10:46:48;98251.09;;;3.77;76.87
70304;BME280;57712;48.752;11.348;2023-02-28T10:49:46;98253.28;;;3.36;73.27
70304;BME280;57712;48.752;11.348;2023-02-28T10:52:13;98259.09;;;3.89;75.75
70304;BME280;57712;48.752;11.348;2023-02-28T10:54:39;98251.88;;;3.42;74.34
70304;BME280;57712;48.752;11.348;2023-02-28T10:57:16;98262.06;;;4.03;71.28
70304;BME280;57712;48.752;11.348;2023-02-28T10:59:44;98256.59;;;4.61;71.56
70304;BME280;57712;48.752;11.348;2023-02-28T11:02:33;98270.19;;;4.42;68.28
70304;BME280;57712;48.752;11.348;2023-02-28T11:05:30;98273.22;;;5.29;64.11
70304;BME280;57712;48.752;11.348;2023-02-28T11:08:13;98266.47;;;4.92;63.88
70304;BME280;57712;48.752;11.348;2023-02-28T11:10:46;98262.78;;;5.31;63.35
70304;BME280;57712;48.752;11.348;2023-02-28T11:13:17;98269.72;;;5.28;60.39
70304;BME280;57712;48.752;11.348;2023-02-28T11:15:53;98278.03;;;5.92;59.03
70304;BME280;57712;48.752;11.348;2023-02-28T11:18:24;98258.31;;;6.28;56.94
70304;BME280;57712;48.752;11.348;2023-02-28T11:20:54;98263.13;;;5.82;56.90
70304;BME280;57712;48.752;11.348;2023-02-28T11:23:25;98259.63;;;5.02;61.25
70304;BME280;57712;48.752;11.348;2023-02-28T11:25:54;98260.88;;;5.88;59.92
70304;BME280;57712;48.752;11.348;2023-02-28T11:28:34;98259.03;;;5.65;58.55
70304;BME280;57712;48.752;11.348;2023-02-28T11:33:52;98256.34;;;5.16;64.20
70304;BME280;57712;48.752;11.348;2023-02-28T11:36:28;98255.00;;;5.03;65.89
70304;BME280;57712;48.752;11.348;2023-02-28T11:39:09;98262.53;;;5.39;61.75
70304;BME280;57712;48.752;11.348;2023-02-28T11:47:10;98244.06;;;5.52;59.92
70304;BME280;57712;48.752;11.348;2023-02-28T11:52:53;98252.78;;;6.21;59.94
70304;BME280;57712;48.752;11.348;2023-02-28T11:55:25;98253.16;;;6.20;55.49
70304;BME280;57712;48.752;11.348;2023-02-28T12:03:39;98252.59;;;7.22;54.41
70304;BME280;57712;48.752;11.348;2023-02-28T12:06:33;98247.06;;;8.75;49.48
70304;BME280;57712;48.752;11.348;2023-02-28T12:09:29;98240.22;;;8.04;49.81
70304;BME280;57712;48.752;11.348;2023-02-28T12:12:28;98250.94;;;7.69;52.00
70304;BME280;57712;48.752;11.348;2023-02-28T12:15:13;98238.53;;;7.78;51.16
70304;BME280;57712;48.752;11.348;2023-02-28T12:23:32;98234.38;;;7.37;52.29
70304;BME280;57712;48.752;11.348;2023-02-28T12:29:47;98233.97;;;6.43;54.47
70304;BME280;57712;48.752;11.348;2023-02-28T12:31:59;98230.06;;;6.81;52.88
70304;BME280;57712;48.752;11.348;2023-02-28T12:34:35;98229.09;;;5.92;56.91
70304;BME280;57712;48.752;11.348;2023-02-28T12:37:07;98237.22;;;6.18;57.12
70304;BME280;57712;48.752;11.348;2023-02-28T12:39:43;98230.44;;;6.79;55.76
70304;BME280;57712;48.752;11.348;2023-02-28T12:42:39;98226.44;;;7.10;54.84
70304;BME280;57712;48.752;11.348;2023-02-28T12:45:15;98235.13;;;7.30;51.65
70304;BME280;57712;48.752;11.348;2023-02-28T12:47:45;98221.59;;;7.44;52.05
70304;BME280;57712;48.752;11.348;2023-02-28T12:50:13;98227.56;;;6.65;52.87
70304;BME280;57712;48.752;11.348;2023-02-28T12:58:37;98209.38;;;6.32;57.28
70304;BME280;57712;48.752;11.348;2023-02-28T13:07:18;98205.16;;;6.38;57.92
70304;BME280;57712;48.752;11.348;2023-02-28T13:09:58;98214.06;;;5.71;59.29
70304;BME280;57712;48.752;11.348;2023-02-28T13:12:26;98216.06;;;6.04;57.81
70304;BME280;57712;48.752;11.348;2023-02-28T13:15:07;98206.78;;;6.09;58.37
70304;BME280;57712;48.752;11.348;2023-02-28T13:17:39;98210.81;;;6.59;56.79
70304;BME280;57712;48.752;11.348;2023-02-28T13:20:37;98207.16;;;6.45;56.61
70304;BME280;57712;48.752;11.348;2023-02-28T13:23:36;98207.31;;;7.07;55.16
70304;BME280;57712;48.752;11.348;2023-02-28T13:26:03;98195.28;;;7.11;54.64
70304;BME280;57712;48.752;11.348;2023-02-28T13:31:15;98204.47;;;6.92;55.40
70304;BME280;57712;48.752;11.348;2023-02-28T13:38:46;98197.84;;;7.41;54.40
70304;BME280;57712;48.752;11.348;2023-02-28T13:44:23;98202.09;;;6.87;56.40
70304;BME280;57712;48.752;11.348;2023-02-28T13:57:15;98200.22;;;6.51;58.41
70304;BME280;57712;48.752;11.348;2023-02-28T14:02:45;98192.44;;;6.93;56.07
70304;BME280;57712;48.752;11.348;2023-02-28T14:05:17;98188.59;;;6.54;55.69
70304;BME280;57712;48.752;11.348;2023-02-28T14:07:50;98191.03;;;6.66;55.57
70304;BME280;57712;48.752;11.348;2023-02-28T14:13:14;98199.13;;;7.03;57.20
70304;BME280;57712;48.752;11.348;2023-02-28T14:16:00;98195.38;;;6.33;56.60
70304;BME280;57712;48.752;11.348;2023-02-28T14:18:31;98198.97;;;6.41;58.72
70304;BME280;57712;48.752;11.348;2023-02-28T14:21:10;98196.16;;;5.67;59.45
70304;BME280;57712;48.752;11.348;2023-02-28T14:32:06;98178.94;;;5.56;64.17
70304;BME280;57712;48.752;11.348;2023-02-28T14:34:55;98181.31;;;5.61;68.99
70304;BME280;57712;48.752;11.348;2023-02-28T14:37:44;98179.78;;;5.07;67.11
70304;BME280;57712;48.752;11.348;2023-02-28T14:40:27;98184.97;;;5.15;67.08
70304;BME280;57712;48.752;11.348;2023-02-28T14:42:59;98189.03;;;5.02;67.24
70304;BME280;57712;48.752;11.348;2023-02-28T14:45:29;98188.09;;;4.91;70.81
70304;BME280;57712;48.752;11.348;2023-02-28T14:47:57;98184.78;;;5.01;72.18
70304;BME280;57712;48.752;11.348;2023-02-28T14:50:35;98181.88;;;4.90;71.71
70304;BME280;57712;48.752;11.348;2023-02-28T14:53:06;98183.38;;;4.88;69.88